sensor_id;sensor_type;location;lat;lon;timestamp;P1;durP1;ratioP1;P2;durP2;ratioP2
5696;SDS011;2873;50.966;7.210;2022-09-09T00:04:20;3.20;;;1.00;;
5696;SDS011;2873;50.966;7.210;2022-09-09T00:12:18;2.63;;;1.00;;
5696;SDS011;2873;50.966;7.210;2022-09-09T00:15:11;5.72;;;0.93;;
5696;SDS011;2873;50.966;7.210;2022-09-09T00:23:08;2.05;;;0.90;;
5696;SDS011;2873;50.966;7.210;2022-09-09T00:28:28;2.67;;;0.90;;
5696;SDS011;2873;50.966;7.210;2022-09-09T00:31:16;3.80;;;0.80;;
5696;SDS011;2873;50.966;7.210;2022-09-09T00:33:47;2.47;;;0.98;;
5696;SDS011;2873;50.966;7.210;2022-09-09T00:36:17;2.92;;;1.05;;
5696;SDS011;2873;50.966;7.210;2022-09-09T00:38:51;2.38;;;1.10;;
5696;SDS011;2873;50.966;7.210;2022-09-09T00:41:22;1.27;;;0.90;;
5696;SDS011;2873;50.966;7.210;2022-09-09T00:43:52;4.55;;;1.50;;
5696;SDS011;2873;50.966;7.210;2022-09-09T00:51:42;1.20;;;0.90;;
5696;SDS011;2873;50.966;7.210;2022-09-09T00:54:27;3.60;;;0.93;;
5696;SDS011;2873;50.966;7.210;2022-09-09T00:57:13;4.80;;;1.10;;
5696;SDS011;2873;50.966;7.210;2022-09-09T01:02:52;3.00;;;1.10;;
5696;SDS011;2873;50.966;7.210;2022-09-09T01:05:44;1.50;;;0.87;;
5696;SDS011;2873;50.966;7.210;2022-09-09T01:10:47;3.72;;;1.40;;
5696;SDS011;2873;50.966;7.210;2022-09-09T01:13:25;1.90;;;0.90;;
5696;SDS011;2873;50.966;7.210;2022-09-09T01:15:55;2.70;;;1.00;;
5696;SDS011;2873;50.966;7.210;2022-09-09T01:18:26;1.17;;;0.80;;
5696;SDS011;2873;50.966;7.210;2022-09-09T01:26:39;3.67;;;1.10;;
5696;SDS011;2873;50.966;7.210;2022-09-09T01:29:14;4.70;;;0.90;;
5696;SDS011;2873;50.966;7.210;2022-09-09T01:31:43;5.72;;;1.60;;
5696;SDS011;2873;50.966;7.210;2022-09-09T01:34:17;5.80;;;1.08;;
5696;SDS011;2873;50.966;7.210;2022-09-09T01:36:44;3.63;;;1.00;;
5696;SDS011;2873;50.966;7.210;2022-09-09T01:39:16;5.32;;;1.20;;
5696;SDS011;2873;50.966;7.210;2022-09-09T01:41:41;4.13;;;1.10;;
5696;SDS011;2873;50.966;7.210;2022-09-09T01:44:07;3.20;;;1.17;;
5696;SDS011;2873;50.966;7.210;2022-09-09T01:46:34;2.03;;;1.52;;
5696;SDS011;2873;50.966;7.210;2022-09-09T01:49:00;3.50;;;1.10;;
5696;SDS011;2873;50.966;7.210;2022-09-09T01:51:27;1.85;;;1.17;;
5696;SDS011;2873;50.966;7.210;2022-09-09T01:53:53;7.40;;;1.23;;
5696;SDS011;2873;50.966;7.210;2022-09-09T01:56:29;2.90;;;0.90;;
5696;SDS011;2873;50.966;7.210;2022-09-09T02:02:18;2.40;;;1.13;;
5696;SDS011;2873;50.966;7.210;2022-09-09T02:07:41;2.97;;;1.00;;
5696;SDS011;2873;50.966;7.210;2022-09-09T02:10:24;3.90;;;1.10;;
5696;SDS011;2873;50.966;7.210;2022-09-09T02:12:58;4.53;;;1.30;;
5696;SDS011;2873;50.966;7.210;2022-09-09T02:15:39;6.72;;;1.50;;
5696;SDS011;2873;50.966;7.210;2022-09-09T02:18:12;3.80;;;1.23;;
5696;SDS011;2873;50.966;7.210;2022-09-09T02:20:42;5.18;;;1.10;;
5696;SDS011;2873;50.966;7.210;2022-09-09T02:23:10;4.63;;;1.33;;
5696;SDS011;2873;50.966;7.210;2022-09-09T02:25:37;3.55;;;1.20;;
5696;SDS011;2873;50.966;7.210;2022-09-09T02:28:06;4.70;;;1.10;;
5696;SDS011;2873;50.966;7.210;2022-09-09T02:30:35;3.87;;;1.50;;
5696;SDS011;2873;50.966;7.210;2022-09-09T02:33:03;4.70;;;1.58;;
5696;SDS011;2873;50.966;7.210;2022-09-09T02:35:32;4.50;;;1.10;;
5696;SDS011;2873;50.966;7.210;2022-09-09T02:38:02;4.03;;;1.90;;
5696;SDS011;2873;50.966;7.210;2022-09-09T02:40:32;2.93;;;1.10;;
5696;SDS011;2873;50.966;7.210;2022-09-09T02:42:57;3.00;;;1.10;;
5696;SDS011;2873;50.966;7.210;2022-09-09T02:45:25;3.80;;;1.30;;
5696;SDS011;2873;50.966;7.210;2022-09-09T02:53:26;4.10;;;1.00;;
5696;SDS011;2873;50.966;7.210;2022-09-09T02:55:57;5.38;;;1.30;;
5696;SDS011;2873;50.966;7.210;2022-09-09T02:58:37;5.68;;;1.30;;
5696;SDS011;2873;50.966;7.210;2022-09-09T03:01:04;1.80;;;1.00;;
5696;SDS011;2873;50.966;7.210;2022-09-09T03:03:29;3.60;;;1.23;;
5696;SDS011;2873;50.966;7.210;2022-09-09T03:05:56;3.63;;;1.08;;
5696;SDS011;2873;50.966;7.210;2022-09-09T03:08:22;5.90;;;1.20;;
5696;SDS011;2873;50.966;7.210;2022-09-09T03:10:47;2.20;;;1.30;;
5696;SDS011;2873;50.966;7.210;2022-09-09T03:13:13;4.00;;;1.40;;
5696;SDS011;2873;50.966;7.210;2022-09-09T03:15:40;2.38;;;1.10;;
5696;SDS011;2873;50.966;7.210;2022-09-09T03:18:06;1.75;;;1.05;;
5696;SDS011;2873;50.966;7.210;2022-09-09T03:20:31;4.90;;;1.10;;
5696;SDS011;2873;50.966;7.210;2022-09-09T03:22:58;3.60;;;1.10;;
5696;SDS011;2873;50.966;7.210;2022-09-09T03:25:25;4.43;;;1.17;;
5696;SDS011;2873;50.966;7.210;2022-09-09T03:27:51;3.47;;;1.10;;
5696;SDS011;2873;50.966;7.210;2022-09-09T03:30:19;6.00;;;1.35;;
5696;SDS011;2873;50.966;7.210;2022-09-09T03:32:49;2.30;;;1.15;;
5696;SDS011;2873;50.966;7.210;2022-09-09T03:35:15;5.18;;;1.33;;
5696;SDS011;2873;50.966;7.210;2022-09-09T03:37:41;6.13;;;1.40;;
5696;SDS011;2873;50.966;7.210;2022-09-09T03:40:07;4.85;;;1.50;;
5696;SDS011;2873;50.966;7.210;2022-09-09T03:42:35;3.30;;;1.05;;
5696;SDS011;2873;50.966;7.210;2022-09-09T03:45:02;2.80;;;1.13;;
5696;SDS011;2873;50.966;7.210;2022-09-09T03:47:28;3.93;;;1.50;;
5696;SDS011;2873;50.966;7.210;2022-09-09T03:49:54;3.55;;;1.20;;
5696;SDS011;2873;50.966;7.210;2022-09-09T03:52:20;6.43;;;1.40;;
5696;SDS011;2873;50.966;7.210;2022-09-09T03:54:49;3.58;;;1.30;;
5696;SDS011;2873;50.966;7.210;2022-09-09T03:57:16;5.80;;;1.02;;
5696;SDS011;2873;50.966;7.210;2022-09-09T03:59:42;5.20;;;1.40;;
5696;SDS011;2873;50.966;7.210;2022-09-09T04:02:07;3.38;;;1.40;;
5696;SDS011;2873;50.966;7.210;2022-09-09T04:04:34;6.03;;;1.20;;
5696;SDS011;2873;50.966;7.210;2022-09-09T04:06:59;9.27;;;1.47;;
5696;SDS011;2873;50.966;7.210;2022-09-09T04:09:25;4.88;;;1.60;;
5696;SDS011;2873;50.966;7.210;2022-09-09T04:11:50;3.40;;;1.10;;
5696;SDS011;2873;50.966;7.210;2022-09-09T04:14:16;7.45;;;1.90;;
5696;SDS011;2873;50.966;7.210;2022-09-09T04:16:42;3.38;;;1.30;;
5696;SDS011;2873;50.966;7.210;2022-09-09T04:19:09;2.50;;;1.02;;
5696;SDS011;2873;50.966;7.210;2022-09-09T04:21:38;4.80;;;1.10;;
5696;SDS011;2873;50.966;7.210;2022-09-09T04:24:05;3.90;;;1.50;;
5696;SDS011;2873;50.966;7.210;2022-09-09T04:26:32;2.13;;;0.90;;
5696;SDS011;2873;50.966;7.210;2022-09-09T04:28:57;8.20;;;1.23;;
5696;SDS011;2873;50.966;7.210;2022-09-09T04:31:23;3.40;;;1.30;;
5696;SDS011;2873;50.966;7.210;2022-09-09T04:33:49;3.03;;;1.30;;
5696;SDS011;2873;50.966;7.210;2022-09-09T04:36:15;5.43;;;1.52;;
5696;SDS011;2873;50.966;7.210;2022-09-09T04:38:43;4.13;;;1.30;;
5696;SDS011;2873;50.966;7.210;2022-09-09T04:41:09;6.25;;;1.70;;
5696;SDS011;2873;50.966;7.210;2022-09-09T04:43:36;2.83;;;1.00;;
5696;SDS011;2873;50.966;7.210;2022-09-09T04:46:02;4.80;;;1.50;;
5696;SDS011;2873;50.966;7.210;2022-09-09T04:48:28;5.40;;;1.38;;
5696;SDS011;2873;50.966;7.210;2022-09-09T04:50:55;5.90;;;1.40;;
5696;SDS011;2873;50.966;7.210;2022-09-09T04:53:21;2.60;;;1.30;;
5696;SDS011;2873;50.966;7.210;2022-09-09T04:55:47;3.53;;;1.30;;
5696;SDS011;2873;50.966;7.210;2022-09-09T04:58:13;6.70;;;1.77;;
5696;SDS011;2873;50.966;7.210;2022-09-09T05:00:39;2.40;;;1.63;;
5696;SDS011;2873;50.966;7.210;2022-09-09T05:03:05;8.38;;;1.40;;
5696;SDS011;2873;50.966;7.210;2022-09-09T05:05:31;2.30;;;1.23;;
5696;SDS011;2873;50.966;7.210;2022-09-09T05:08:02;4.00;;;1.23;;
5696;SDS011;2873;50.966;7.210;2022-09-09T05:10:29;3.10;;;1.40;;
5696;SDS011;2873;50.966;7.210;2022-09-09T05:12:55;3.22;;;1.50;;
5696;SDS011;2873;50.966;7.210;2022-09-09T05:15:21;3.70;;;1.33;;
5696;SDS011;2873;50.966;7.210;2022-09-09T05:17:47;3.95;;;1.50;;
5696;SDS011;2873;50.966;7.210;2022-09-09T05:20:13;5.97;;;1.40;;
5696;SDS011;2873;50.966;7.210;2022-09-09T05:22:38;8.38;;;1.60;;
5696;SDS011;2873;50.966;7.210;2022-09-09T05:25:05;5.00;;;1.58;;
5696;SDS011;2873;50.966;7.210;2022-09-09T05:27:31;2.60;;;1.40;;
5696;SDS011;2873;50.966;7.210;2022-09-09T05:29:59;6.90;;;1.73;;
5696;SDS011;2873;50.966;7.210;2022-09-09T05:32:24;2.90;;;1.40;;
5696;SDS011;2873;50.966;7.210;2022-09-09T05:34:50;2.00;;;1.35;;
5696;SDS011;2873;50.966;7.210;2022-09-09T05:37:17;4.10;;;1.38;;
5696;SDS011;2873;50.966;7.210;2022-09-09T05:39:43;2.78;;;1.20;;
5696;SDS011;2873;50.966;7.210;2022-09-09T05:42:08;3.13;;;1.40;;
5696;SDS011;2873;50.966;7.210;2022-09-09T05:44:34;4.70;;;1.20;;
5696;SDS011;2873;50.966;7.210;2022-09-09T05:46:59;5.33;;;1.50;;
5696;SDS011;2873;50.966;7.210;2022-09-09T05:49:25;4.07;;;1.40;;
5696;SDS011;2873;50.966;7.210;2022-09-09T05:51:51;3.70;;;1.50;;
5696;SDS011;2873;50.966;7.210;2022-09-09T05:54:17;3.50;;;1.40;;
5696;SDS011;2873;50.966;7.210;2022-09-09T05:56:42;2.65;;;1.25;;
5696;SDS011;2873;50.966;7.210;2022-09-09T05:59:08;4.43;;;1.30;;
5696;SDS011;2873;50.966;7.210;2022-09-09T06:01:34;8.10;;;1.48;;
5696;SDS011;2873;50.966;7.210;2022-09-09T06:04:03;3.38;;;1.30;;
5696;SDS011;2873;50.966;7.210;2022-09-09T06:06:35;4.53;;;1.47;;
5696;SDS011;2873;50.966;7.210;2022-09-09T06:09:04;3.22;;;1.40;;
5696;SDS011;2873;50.966;7.210;2022-09-09T06:11:34;5.40;;;1.30;;
5696;SDS011;2873;50.966;7.210;2022-09-09T06:14:01;3.63;;;1.20;;
5696;SDS011;2873;50.966;7.210;2022-09-09T06:16:27;3.70;;;1.15;;
5696;SDS011;2873;50.966;7.210;2022-09-09T06:18:55;4.45;;;1.27;;
5696;SDS011;2873;50.966;7.210;2022-09-09T06:21:22;4.27;;;1.60;;
5696;SDS011;2873;50.966;7.210;2022-09-09T06:23:49;7.97;;;1.40;;
5696;SDS011;2873;50.966;7.210;2022-09-09T06:26:22;5.13;;;1.30;;
5696;SDS011;2873;50.966;7.210;2022-09-09T06:28:50;2.90;;;1.38;;
5696;SDS011;2873;50.966;7.210;2022-09-09T06:31:18;3.10;;;1.30;;
5696;SDS011;2873;50.966;7.210;2022-09-09T06:33:48;4.47;;;1.50;;
5696;SDS011;2873;50.966;7.210;2022-09-09T06:36:25;4.82;;;1.75;;
5696;SDS011;2873;50.966;7.210;2022-09-09T06:38:53;4.82;;;1.20;;
5696;SDS011;2873;50.966;7.210;2022-09-09T06:41:20;3.20;;;1.33;;
5696;SDS011;2873;50.966;7.210;2022-09-09T06:43:47;4.95;;;1.30;;
5696;SDS011;2873;50.966;7.210;2022-09-09T06:46:14;3.80;;;1.10;;
5696;SDS011;2873;50.966;7.210;2022-09-09T06:48:42;8.20;;;2.22;;
5696;SDS011;2873;50.966;7.210;2022-09-09T06:51:10;2.50;;;1.20;;
5696;SDS011;2873;50.966;7.210;2022-09-09T06:53:36;3.88;;;1.40;;
5696;SDS011;2873;50.966;7.210;2022-09-09T06:58:35;4.38;;;1.10;;
5696;SDS011;2873;50.966;7.210;2022-09-09T07:01:05;5.50;;;1.30;;
5696;SDS011;2873;50.966;7.210;2022-09-09T07:03:31;3.30;;;1.20;;
5696;SDS011;2873;50.966;7.210;2022-09-09T07:05:58;3.87;;;1.30;;
5696;SDS011;2873;50.966;7.210;2022-09-09T07:08:24;3.83;;;1.40;;
5696;SDS011;2873;50.966;7.210;2022-09-09T07:10:51;6.03;;;1.15;;
5696;SDS011;2873;50.966;7.210;2022-09-09T07:13:19;2.42;;;1.20;;
5696;SDS011;2873;50.966;7.210;2022-09-09T07:15:50;3.83;;;1.33;;
5696;SDS011;2873;50.966;7.210;2022-09-09T07:18:16;3.05;;;1.00;;
5696;SDS011;2873;50.966;7.210;2022-09-09T07:20:42;5.20;;;1.67;;
5696;SDS011;2873;50.966;7.210;2022-09-09T07:23:08;4.27;;;1.40;;
5696;SDS011;2873;50.966;7.210;2022-09-09T07:25:33;3.27;;;1.30;;
5696;SDS011;2873;50.966;7.210;2022-09-09T07:27:59;3.40;;;1.33;;
5696;SDS011;2873;50.966;7.210;2022-09-09T07:30:24;5.60;;;1.40;;
5696;SDS011;2873;50.966;7.210;2022-09-09T07:32:53;8.57;;;1.40;;
5696;SDS011;2873;50.966;7.210;2022-09-09T07:35:18;4.05;;;1.20;;
5696;SDS011;2873;50.966;7.210;2022-09-09T07:37:45;6.30;;;1.50;;
5696;SDS011;2873;50.966;7.210;2022-09-09T07:40:10;2.90;;;1.10;;
5696;SDS011;2873;50.966;7.210;2022-09-09T07:42:36;4.67;;;1.30;;
5696;SDS011;2873;50.966;7.210;2022-09-09T07:45:02;3.17;;;1.10;;
5696;SDS011;2873;50.966;7.210;2022-09-09T07:47:28;6.18;;;1.40;;
5696;SDS011;2873;50.966;7.210;2022-09-09T07:49:54;3.70;;;1.33;;
5696;SDS011;2873;50.966;7.210;2022-09-09T07:52:20;3.67;;;1.10;;
5696;SDS011;2873;50.966;7.210;2022-09-09T07:54:46;3.30;;;1.10;;
5696;SDS011;2873;50.966;7.210;2022-09-09T07:57:12;2.75;;;1.00;;
5696;SDS011;2873;50.966;7.210;2022-09-09T07:59:37;4.70;;;1.50;;
5696;SDS011;2873;50.966;7.210;2022-09-09T08:02:03;4.20;;;1.42;;
5696;SDS011;2873;50.966;7.210;2022-09-09T08:04:29;4.88;;;1.67;;
5696;SDS011;2873;50.966;7.210;2022-09-09T08:06:57;4.43;;;1.33;;
5696;SDS011;2873;50.966;7.210;2022-09-09T08:09:25;6.22;;;1.40;;
5696;SDS011;2873;50.966;7.210;2022-09-09T08:11:54;4.50;;;1.30;;
5696;SDS011;2873;50.966;7.210;2022-09-09T08:14:21;4.45;;;1.20;;
5696;SDS011;2873;50.966;7.210;2022-09-09T08:16:48;2.43;;;1.23;;
5696;SDS011;2873;50.966;7.210;2022-09-09T08:19:14;3.10;;;1.20;;
5696;SDS011;2873;50.966;7.210;2022-09-09T08:21:40;7.40;;;1.30;;
5696;SDS011;2873;50.966;7.210;2022-09-09T08:24:07;5.20;;;1.20;;
5696;SDS011;2873;50.966;7.210;2022-09-09T08:26:39;4.07;;;1.08;;
5696;SDS011;2873;50.966;7.210;2022-09-09T08:29:07;3.80;;;1.30;;
5696;SDS011;2873;50.966;7.210;2022-09-09T08:31:36;4.45;;;1.20;;
5696;SDS011;2873;50.966;7.210;2022-09-09T08:34:03;5.03;;;1.23;;
5696;SDS011;2873;50.966;7.210;2022-09-09T08:36:32;3.70;;;1.30;;
5696;SDS011;2873;50.966;7.210;2022-09-09T08:38:59;3.70;;;1.70;;
5696;SDS011;2873;50.966;7.210;2022-09-09T08:58:21;6.70;;;1.13;;
5696;SDS011;2873;50.966;7.210;2022-09-09T09:06:58;6.77;;;1.27;;
5696;SDS011;2873;50.966;7.210;2022-09-09T09:12:32;4.40;;;1.30;;
5696;SDS011;2873;50.966;7.210;2022-09-09T09:15:05;2.90;;;1.20;;
5696;SDS011;2873;50.966;7.210;2022-09-09T09:17:42;2.92;;;1.10;;
5696;SDS011;2873;50.966;7.210;2022-09-09T09:20:12;3.08;;;1.20;;
5696;SDS011;2873;50.966;7.210;2022-09-09T09:22:43;5.38;;;1.10;;
5696;SDS011;2873;50.966;7.210;2022-09-09T09:25:17;5.07;;;1.40;;
5696;SDS011;2873;50.966;7.210;2022-09-09T09:31:16;6.60;;;1.90;;
5696;SDS011;2873;50.966;7.210;2022-09-09T09:35:48;5.07;;;1.00;;
5696;SDS011;2873;50.966;7.210;2022-09-09T09:38:19;4.32;;;1.30;;
5696;SDS011;2873;50.966;7.210;2022-09-09T09:40:54;3.70;;;1.00;;
5696;SDS011;2873;50.966;7.210;2022-09-09T09:43:29;8.98;;;1.00;;
5696;SDS011;2873;50.966;7.210;2022-09-09T09:45:59;1.65;;;0.60;;
5696;SDS011;2873;50.966;7.210;2022-09-09T09:48:26;3.40;;;1.00;;
5696;SDS011;2873;50.966;7.210;2022-09-09T09:53:30;3.70;;;0.95;;
5696;SDS011;2873;50.966;7.210;2022-09-09T09:56:00;3.50;;;0.93;;
5696;SDS011;2873;50.966;7.210;2022-09-09T09:58:30;4.72;;;0.80;;
5696;SDS011;2873;50.966;7.210;2022-09-09T10:00:58;2.35;;;0.82;;
5696;SDS011;2873;50.966;7.210;2022-09-09T10:03:28;1.90;;;0.80;;
5696;SDS011;2873;50.966;7.210;2022-09-09T10:06:06;3.53;;;0.90;;
5696;SDS011;2873;50.966;7.210;2022-09-09T10:08:33;2.38;;;0.90;;
5696;SDS011;2873;50.966;7.210;2022-09-09T10:11:25;3.40;;;0.90;;
5696;SDS011;2873;50.966;7.210;2022-09-09T10:14:06;2.63;;;0.80;;
5696;SDS011;2873;50.966;7.210;2022-09-09T10:16:59;3.58;;;0.93;;
5696;SDS011;2873;50.966;7.210;2022-09-09T10:19:34;4.07;;;1.00;;
5696;SDS011;2873;50.966;7.210;2022-09-09T10:22:15;3.45;;;1.05;;
5696;SDS011;2873;50.966;7.210;2022-09-09T10:27:51;2.13;;;0.70;;
5696;SDS011;2873;50.966;7.210;2022-09-09T10:33:28;3.90;;;0.80;;
5696;SDS011;2873;50.966;7.210;2022-09-09T10:36:23;4.10;;;1.08;;
5696;SDS011;2873;50.966;7.210;2022-09-09T10:38:58;1.50;;;0.70;;
5696;SDS011;2873;50.966;7.210;2022-09-09T10:41:44;3.30;;;0.70;;
5696;SDS011;2873;50.966;7.210;2022-09-09T10:55:51;2.90;;;1.00;;
5696;SDS011;2873;50.966;7.210;2022-09-09T10:58:32;1.20;;;0.88;;
5696;SDS011;2873;50.966;7.210;2022-09-09T11:01:19;2.42;;;0.88;;
5696;SDS011;2873;50.966;7.210;2022-09-09T11:03:53;4.23;;;0.80;;
5696;SDS011;2873;50.966;7.210;2022-09-09T11:06:37;2.83;;;0.90;;
5696;SDS011;2873;50.966;7.210;2022-09-09T11:09:08;2.33;;;1.10;;
5696;SDS011;2873;50.966;7.210;2022-09-09T11:11:44;2.35;;;0.95;;
5696;SDS011;2873;50.966;7.210;2022-09-09T11:14:24;3.17;;;1.20;;
5696;SDS011;2873;50.966;7.210;2022-09-09T11:17:13;3.40;;;0.80;;
5696;SDS011;2873;50.966;7.210;2022-09-09T11:19:43;3.40;;;0.80;;
5696;SDS011;2873;50.966;7.210;2022-09-09T11:24:39;2.28;;;0.90;;
5696;SDS011;2873;50.966;7.210;2022-09-09T11:27:23;5.07;;;0.80;;
5696;SDS011;2873;50.966;7.210;2022-09-09T11:30:16;4.13;;;0.90;;
5696;SDS011;2873;50.966;7.210;2022-09-09T11:41:01;5.13;;;1.27;;
5696;SDS011;2873;50.966;7.210;2022-09-09T11:43:30;3.60;;;0.70;;
5696;SDS011;2873;50.966;7.210;2022-09-09T11:45:59;2.72;;;0.75;;
5696;SDS011;2873;50.966;7.210;2022-09-09T11:48:37;1.33;;;0.60;;
5696;SDS011;2873;50.966;7.210;2022-09-09T11:51:09;2.03;;;0.70;;
5696;SDS011;2873;50.966;7.210;2022-09-09T11:53:47;1.90;;;0.80;;
5696;SDS011;2873;50.966;7.210;2022-09-09T11:56:22;1.25;;;0.70;;
5696;SDS011;2873;50.966;7.210;2022-09-09T11:58:57;3.50;;;0.80;;
5696;SDS011;2873;50.966;7.210;2022-09-09T12:01:43;2.40;;;0.57;;
5696;SDS011;2873;50.966;7.210;2022-09-09T12:07:04;1.25;;;0.60;;
5696;SDS011;2873;50.966;7.210;2022-09-09T12:17:29;1.60;;;0.80;;
5696;SDS011;2873;50.966;7.210;2022-09-09T12:25:13;2.17;;;0.60;;
5696;SDS011;2873;50.966;7.210;2022-09-09T12:27:59;2.53;;;0.77;;
5696;SDS011;2873;50.966;7.210;2022-09-09T12:30:39;3.90;;;0.90;;
5696;SDS011;2873;50.966;7.210;2022-09-09T12:33:10;7.63;;;1.00;;
5696;SDS011;2873;50.966;7.210;2022-09-09T12:35:38;2.33;;;0.60;;
5696;SDS011;2873;50.966;7.210;2022-09-09T12:38:05;2.60;;;0.77;;
5696;SDS011;2873;50.966;7.210;2022-09-09T12:40:36;3.10;;;0.60;;
5696;SDS011;2873;50.966;7.210;2022-09-09T12:43:14;1.70;;;0.73;;
5696;SDS011;2873;50.966;7.210;2022-09-09T12:45:44;1.30;;;0.60;;
5696;SDS011;2873;50.966;7.210;2022-09-09T12:48:10;1.90;;;0.90;;
5696;SDS011;2873;50.966;7.210;2022-09-09T12:50:44;1.20;;;0.60;;
5696;SDS011;2873;50.966;7.210;2022-09-09T12:53:13;3.40;;;1.15;;
5696;SDS011;2873;50.966;7.210;2022-09-09T12:55:58;5.30;;;0.90;;
5696;SDS011;2873;50.966;7.210;2022-09-09T12:58:24;1.40;;;0.60;;
5696;SDS011;2873;50.966;7.210;2022-09-09T13:00:53;2.20;;;0.70;;
5696;SDS011;2873;50.966;7.210;2022-09-09T13:03:23;2.92;;;0.93;;
5696;SDS011;2873;50.966;7.210;2022-09-09T13:05:50;2.60;;;0.80;;
5696;SDS011;2873;50.966;7.210;2022-09-09T13:08:17;2.83;;;0.70;;
5696;SDS011;2873;50.966;7.210;2022-09-09T13:13:28;4.95;;;0.70;;
5696;SDS011;2873;50.966;7.210;2022-09-09T13:16:03;1.85;;;0.70;;
5696;SDS011;2873;50.966;7.210;2022-09-09T13:18:33;2.55;;;0.80;;
5696;SDS011;2873;50.966;7.210;2022-09-09T13:21:00;1.90;;;0.70;;
5696;SDS011;2873;50.966;7.210;2022-09-09T13:23:27;2.40;;;0.63;;
5696;SDS011;2873;50.966;7.210;2022-09-09T13:25:58;1.95;;;0.65;;
5696;SDS011;2873;50.966;7.210;2022-09-09T13:28:29;1.40;;;0.57;;
5696;SDS011;2873;50.966;7.210;2022-09-09T13:33:44;1.75;;;0.60;;
5696;SDS011;2873;50.966;7.210;2022-09-09T13:36:10;2.20;;;0.70;;
5696;SDS011;2873;50.966;7.210;2022-09-09T13:41:33;3.58;;;0.70;;
5696;SDS011;2873;50.966;7.210;2022-09-09T13:43:59;2.50;;;0.90;;
5696;SDS011;2873;50.966;7.210;2022-09-09T13:48:56;2.00;;;0.90;;
5696;SDS011;2873;50.966;7.210;2022-09-09T13:51:43;1.60;;;0.80;;
5696;SDS011;2873;50.966;7.210;2022-09-09T13:54:12;2.63;;;0.70;;
5696;SDS011;2873;50.966;7.210;2022-09-09T13:56:39;2.42;;;0.80;;
5696;SDS011;2873;50.966;7.210;2022-09-09T13:59:06;1.50;;;0.70;;
5696;SDS011;2873;50.966;7.210;2022-09-09T14:01:44;3.40;;;0.93;;
5696;SDS011;2873;50.966;7.210;2022-09-09T14:04:10;1.40;;;0.90;;
5696;SDS011;2873;50.966;7.210;2022-09-09T14:06:37;1.77;;;0.80;;
5696;SDS011;2873;50.966;7.210;2022-09-09T14:09:09;2.50;;;0.70;;
5696;SDS011;2873;50.966;7.210;2022-09-09T14:11:36;1.40;;;0.90;;
5696;SDS011;2873;50.966;7.210;2022-09-09T14:14:02;2.03;;;0.77;;
5696;SDS011;2873;50.966;7.210;2022-09-09T14:16:28;3.42;;;0.80;;
5696;SDS011;2873;50.966;7.210;2022-09-09T14:18:54;1.48;;;0.77;;
5696;SDS011;2873;50.966;7.210;2022-09-09T14:21:22;1.52;;;0.52;;
5696;SDS011;2873;50.966;7.210;2022-09-09T14:23:48;0.90;;;0.60;;
5696;SDS011;2873;50.966;7.210;2022-09-09T14:26:14;2.20;;;0.60;;
5696;SDS011;2873;50.966;7.210;2022-09-09T14:28:40;4.07;;;0.50;;
5696;SDS011;2873;50.966;7.210;2022-09-09T14:31:06;3.92;;;0.50;;
5696;SDS011;2873;50.966;7.210;2022-09-09T14:33:32;2.83;;;0.80;;
5696;SDS011;2873;50.966;7.210;2022-09-09T14:36:02;1.40;;;0.43;;
5696;SDS011;2873;50.966;7.210;2022-09-09T14:38:28;0.90;;;0.50;;
5696;SDS011;2873;50.966;7.210;2022-09-09T14:40:55;1.20;;;0.40;;
5696;SDS011;2873;50.966;7.210;2022-09-09T14:43:23;1.10;;;0.50;;
5696;SDS011;2873;50.966;7.210;2022-09-09T14:45:48;1.80;;;0.50;;
5696;SDS011;2873;50.966;7.210;2022-09-09T14:48:16;0.68;;;0.40;;
5696;SDS011;2873;50.966;7.210;2022-09-09T14:50:42;1.50;;;0.60;;
5696;SDS011;2873;50.966;7.210;2022-09-09T14:53:08;1.03;;;0.60;;
5696;SDS011;2873;50.966;7.210;2022-09-09T14:55:35;1.60;;;0.40;;
5696;SDS011;2873;50.966;7.210;2022-09-09T14:58:01;0.80;;;0.40;;
5696;SDS011;2873;50.966;7.210;2022-09-09T15:00:26;1.40;;;0.40;;
5696;SDS011;2873;50.966;7.210;2022-09-09T15:02:52;2.10;;;0.60;;
5696;SDS011;2873;50.966;7.210;2022-09-09T15:05:19;3.90;;;0.65;;
5696;SDS011;2873;50.966;7.210;2022-09-09T15:07:45;0.97;;;0.40;;
5696;SDS011;2873;50.966;7.210;2022-09-09T15:10:11;2.00;;;0.80;;
5696;SDS011;2873;50.966;7.210;2022-09-09T15:12:36;1.30;;;0.50;;
5696;SDS011;2873;50.966;7.210;2022-09-09T15:15:03;1.13;;;0.50;;
5696;SDS011;2873;50.966;7.210;2022-09-09T15:17:29;1.40;;;0.50;;
5696;SDS011;2873;50.966;7.210;2022-09-09T15:19:55;2.30;;;0.50;;
5696;SDS011;2873;50.966;7.210;2022-09-09T15:22:21;0.83;;;0.60;;
5696;SDS011;2873;50.966;7.210;2022-09-09T15:24:46;1.88;;;0.68;;
5696;SDS011;2873;50.966;7.210;2022-09-09T15:27:12;1.90;;;0.60;;
5696;SDS011;2873;50.966;7.210;2022-09-09T15:29:39;2.30;;;0.70;;
5696;SDS011;2873;50.966;7.210;2022-09-09T15:32:06;1.55;;;0.70;;
5696;SDS011;2873;50.966;7.210;2022-09-09T15:34:31;1.53;;;0.80;;
5696;SDS011;2873;50.966;7.210;2022-09-09T15:36:57;1.20;;;0.50;;
5696;SDS011;2873;50.966;7.210;2022-09-09T15:39:24;0.50;;;0.50;;
5696;SDS011;2873;50.966;7.210;2022-09-09T15:41:50;0.97;;;0.60;;
5696;SDS011;2873;50.966;7.210;2022-09-09T15:44:16;1.02;;;0.70;;
5696;SDS011;2873;50.966;7.210;2022-09-09T15:49:20;1.00;;;0.60;;
5696;SDS011;2873;50.966;7.210;2022-09-09T15:51:53;1.33;;;0.70;;
5696;SDS011;2873;50.966;7.210;2022-09-09T15:54:22;1.30;;;0.60;;
5696;SDS011;2873;50.966;7.210;2022-09-09T15:56:53;1.92;;;0.77;;
5696;SDS011;2873;50.966;7.210;2022-09-09T15:59:21;0.80;;;0.60;;
5696;SDS011;2873;50.966;7.210;2022-09-09T16:01:50;1.40;;;0.90;;
5696;SDS011;2873;50.966;7.210;2022-09-09T16:04:16;1.80;;;0.80;;
5696;SDS011;2873;50.966;7.210;2022-09-09T16:06:48;2.55;;;0.77;;
5696;SDS011;2873;50.966;7.210;2022-09-09T16:09:23;4.40;;;0.80;;
5696;SDS011;2873;50.966;7.210;2022-09-09T16:11:49;0.80;;;0.50;;
5696;SDS011;2873;50.966;7.210;2022-09-09T16:14:16;5.57;;;0.90;;
5696;SDS011;2873;50.966;7.210;2022-09-09T16:16:42;3.10;;;0.60;;
5696;SDS011;2873;50.966;7.210;2022-09-09T16:19:08;3.00;;;0.57;;
5696;SDS011;2873;50.966;7.210;2022-09-09T16:21:38;0.50;;;0.50;;
5696;SDS011;2873;50.966;7.210;2022-09-09T16:24:09;1.80;;;0.70;;
5696;SDS011;2873;50.966;7.210;2022-09-09T16:26:38;1.30;;;0.65;;
5696;SDS011;2873;50.966;7.210;2022-09-09T16:29:09;1.70;;;0.70;;
5696;SDS011;2873;50.966;7.210;2022-09-09T16:31:35;2.78;;;0.70;;
5696;SDS011;2873;50.966;7.210;2022-09-09T16:34:00;3.60;;;0.70;;
5696;SDS011;2873;50.966;7.210;2022-09-09T16:36:28;2.63;;;0.68;;
5696;SDS011;2873;50.966;7.210;2022-09-09T16:38:57;1.20;;;0.70;;
5696;SDS011;2873;50.966;7.210;2022-09-09T16:41:24;0.90;;;0.60;;
5696;SDS011;2873;50.966;7.210;2022-09-09T16:46:21;2.00;;;0.70;;
5696;SDS011;2873;50.966;7.210;2022-09-09T16:48:48;1.30;;;0.60;;
5696;SDS011;2873;50.966;7.210;2022-09-09T16:51:16;2.40;;;0.60;;
5696;SDS011;2873;50.966;7.210;2022-09-09T16:53:44;1.38;;;0.70;;
5696;SDS011;2873;50.966;7.210;2022-09-09T16:56:14;2.10;;;0.70;;
5696;SDS011;2873;50.966;7.210;2022-09-09T16:58:42;1.73;;;0.73;;
5696;SDS011;2873;50.966;7.210;2022-09-09T17:01:08;1.15;;;0.80;;
5696;SDS011;2873;50.966;7.210;2022-09-09T17:03:36;2.25;;;0.85;;
5696;SDS011;2873;50.966;7.210;2022-09-09T17:06:02;3.80;;;0.90;;
5696;SDS011;2873;50.966;7.210;2022-09-09T17:08:31;4.70;;;1.00;;
5696;SDS011;2873;50.966;7.210;2022-09-09T17:10:58;1.30;;;0.65;;
5696;SDS011;2873;50.966;7.210;2022-09-09T17:13:24;1.10;;;0.90;;
5696;SDS011;2873;50.966;7.210;2022-09-09T17:15:50;2.80;;;0.43;;
5696;SDS011;2873;50.966;7.210;2022-09-09T17:18:15;1.10;;;0.80;;
5696;SDS011;2873;50.966;7.210;2022-09-09T17:20:42;2.70;;;0.77;;
5696;SDS011;2873;50.966;7.210;2022-09-09T17:23:09;1.45;;;0.60;;
5696;SDS011;2873;50.966;7.210;2022-09-09T17:25:36;1.60;;;0.63;;
5696;SDS011;2873;50.966;7.210;2022-09-09T17:28:03;3.30;;;0.88;;
5696;SDS011;2873;50.966;7.210;2022-09-09T17:30:29;3.00;;;0.70;;
5696;SDS011;2873;50.966;7.210;2022-09-09T17:33:01;2.17;;;0.77;;
5696;SDS011;2873;50.966;7.210;2022-09-09T17:35:31;2.00;;;1.10;;
5696;SDS011;2873;50.966;7.210;2022-09-09T17:37:57;1.50;;;0.80;;
5696;SDS011;2873;50.966;7.210;2022-09-09T17:40:23;3.35;;;1.08;;
5696;SDS011;2873;50.966;7.210;2022-09-09T17:42:48;2.20;;;1.00;;
5696;SDS011;2873;50.966;7.210;2022-09-09T17:45:14;3.47;;;1.03;;
5696;SDS011;2873;50.966;7.210;2022-09-09T17:47:40;3.30;;;1.23;;
5696;SDS011;2873;50.966;7.210;2022-09-09T17:50:07;2.53;;;1.20;;